Oregon State Flying Club

The Oregon State Flying Club is a non-profit organization committed to providing safe and inexpensive flying to the Oregon State University and Linn-Benton Community College communities. The Club currently owns three aircraft based at the Corvallis Airport for training, travel, and recreational purposes. Founded in 1952 and incorporated in 1956 the OSFC is one of the oldest continuously active flying clubs in the United States.

a Rafflecopter giveaway

News & Announcements

Flying Club Open House

Corvallis Airport, Sunday, November 9
10:00am to 3:00pm

Plane Wash

Saturday, November 1, 10:00am

Monthly Board Meeting

Next Meeting: Tuesday, November 19, 6pm location TBD

Current METAR KCVO

Raw METAR:  KCVO 251315Z AUTO 09012KT 7SM OVC080 12/10 A2954 RMK AO1 P0002

This is a report for Corvallis Municipal Automatic Weather Observing / Reporting System, United States. The report was made 9 minutes ago, at 13:15 UTC. The wind was blowing at a speed of 13.8 miles per hour (6.2 meters per second) from east (090°). The temperature was 54 °F (12 °C), with a dew-point at 50 °F (10 °C). The atmospheric pressure was 29.54 inHg (1000 hPa). The relative humidity was 87.6%. The sky was overcast from a height of 8000 feet (2438 meter) The overall visibility was 7.0 miles (11.3 kilometers).